Terminal Aerodrome Forecast
Issued by NWS

Current Version | Previous Version | Graphics & Text | Print | Product List | Glossary On
Versions: 1 2 3 4 5 6 7 8 9 10 11 12 13 14 15 16
000
FTUS41 KPBZ 271700
TAFMGW
TAF
KMGW 271720Z 2718/2818 18003KT P6SM SCT040
     FM272100 23005KT P6SM VCSH BKN040
     FM280000 30005KT P6SM BKN035
     FM280800 34005KT P6SM SCT050=

USA.gov is the U.S. government's official web portal to all federal, state and local government web resources and services.